createdAt,value
2022-09-06T00:02:19.524Z,20.50
2022-09-06T00:04:46.227Z,20.50
2022-09-06T00:07:12.914Z,20.50
2022-09-06T00:09:39.603Z,20.40
2022-09-06T00:12:06.699Z,20.40
2022-09-06T00:14:33.442Z,20.30
2022-09-06T00:17:00.739Z,20.20
2022-09-06T00:19:30.604Z,20.20
2022-09-06T00:21:57.247Z,20.20
2022-09-06T00:24:23.938Z,20.30
2022-09-06T00:26:50.636Z,20.40
2022-09-06T00:29:17.300Z,20.30
2022-09-06T00:31:44.359Z,20.30
2022-09-06T00:34:11.136Z,20.30
2022-09-06T00:36:37.842Z,20.20
2022-09-06T00:39:04.651Z,20.20
2022-09-06T00:41:31.397Z,20.10
2022-09-06T00:43:58.117Z,20.10
2022-09-06T00:46:29.277Z,20.00
2022-09-06T00:49:13.501Z,20.00
2022-09-06T00:51:40.624Z,20.00
2022-09-06T00:54:09.089Z,20.00
2022-09-06T00:56:40.727Z,20.00
2022-09-06T00:59:07.959Z,20.00
2022-09-06T01:01:34.927Z,20.10
2022-09-06T01:04:02.445Z,20.20
2022-09-06T01:07:00.096Z,20.30
2022-09-06T01:09:55.828Z,20.40
2022-09-06T01:12:47.896Z,20.60
2022-09-06T01:15:33.860Z,20.60
2022-09-06T01:18:25.477Z,20.50
2022-09-06T01:21:09.451Z,20.50
2022-09-06T01:24:10.715Z,20.30
2022-09-06T01:27:19.310Z,20.30
2022-09-06T01:29:52.852Z,20.20
2022-09-06T01:32:55.283Z,20.20
2022-09-06T01:35:38.518Z,20.20
2022-09-06T01:38:07.232Z,20.30
2022-09-06T01:40:36.900Z,20.30
2022-09-06T01:43:10.610Z,20.20
2022-09-06T01:46:11.667Z,20.00
2022-09-06T01:48:56.835Z,20.00
2022-09-06T01:51:42.215Z,20.00
2022-09-06T01:54:30.420Z,20.00
2022-09-06T01:57:09.510Z,19.90
2022-09-06T02:00:02.267Z,20.00
2022-09-06T02:02:52.202Z,20.00
2022-09-06T02:05:36.176Z,19.90
2022-09-06T02:08:11.280Z,19.80
2022-09-06T02:10:49.971Z,19.70
2022-09-06T02:13:19.221Z,19.70
2022-09-06T02:15:52.652Z,19.80
2022-09-06T02:18:26.992Z,19.80
2022-09-06T02:20:58.307Z,19.60
2022-09-06T02:23:31.189Z,19.50
2022-09-06T02:26:03.046Z,19.40
2022-09-06T02:28:29.782Z,19.30
2022-09-06T02:31:02.334Z,19.30
2022-09-06T02:33:32.375Z,19.30
2022-09-06T02:36:06.347Z,19.30
2022-09-06T02:38:36.963Z,19.20
2022-09-06T02:41:05.582Z,19.20
2022-09-06T02:43:32.475Z,19.20
2022-09-06T02:45:59.789Z,19.20
2022-09-06T02:48:26.732Z,19.20
2022-09-06T02:50:53.656Z,19.30
2022-09-06T02:53:20.425Z,19.20
2022-09-06T02:55:48.685Z,19.20
2022-09-06T02:58:15.989Z,19.20
2022-09-06T03:00:44.015Z,19.20
2022-09-06T03:03:13.901Z,19.20
2022-09-06T03:05:40.806Z,19.20
2022-09-06T03:08:07.696Z,19.10
2022-09-06T03:10:34.615Z,19.10
2022-09-06T03:13:02.150Z,19.10
2022-09-06T03:15:28.864Z,19.10
2022-09-06T03:18:00.140Z,19.10
2022-09-06T03:20:26.891Z,19.10
2022-09-06T03:22:53.763Z,19.00
2022-09-06T03:25:21.684Z,18.90
2022-09-06T03:27:51.635Z,19.00
2022-09-06T03:30:18.904Z,18.90
2022-09-06T03:32:47.907Z,19.00
2022-09-06T03:35:15.110Z,19.00
2022-09-06T03:37:41.783Z,18.90
2022-09-06T03:40:09.288Z,18.90
2022-09-06T03:42:36.011Z,18.90
2022-09-06T03:45:02.952Z,18.90
2022-09-06T03:47:29.798Z,18.80
2022-09-06T03:49:56.535Z,18.80
2022-09-06T03:52:26.074Z,18.80
2022-09-06T03:54:55.740Z,18.90
2022-09-06T03:57:22.640Z,18.90
2022-09-06T03:59:50.435Z,18.90
2022-09-06T04:02:17.195Z,18.90
2022-09-06T04:04:44.127Z,18.80
2022-09-06T04:07:11.140Z,18.80
2022-09-06T04:09:38.202Z,18.90
2022-09-06T04:12:05.090Z,18.80
2022-09-06T04:14:31.775Z,18.70
2022-09-06T04:16:58.860Z,18.70
2022-09-06T04:19:25.764Z,18.70
2022-09-06T04:21:52.476Z,18.70
2022-09-06T04:24:19.144Z,18.70
2022-09-06T04:26:45.871Z,18.70
2022-09-06T04:29:12.810Z,18.60
2022-09-06T04:31:39.755Z,18.60
2022-09-06T04:34:06.786Z,18.50
2022-09-06T04:36:33.631Z,18.50
2022-09-06T04:39:00.511Z,18.50
2022-09-06T04:41:27.216Z,18.50
2022-09-06T04:43:53.900Z,18.40
2022-09-06T04:46:26.004Z,18.50
2022-09-06T04:48:53.215Z,18.50
2022-09-06T04:51:21.107Z,18.40
2022-09-06T04:53:48.425Z,18.40
2022-09-06T04:56:20.722Z,18.40
2022-09-06T04:58:48.940Z,18.30
2022-09-06T05:01:16.394Z,18.30
2022-09-06T05:03:43.210Z,18.30
2022-09-06T05:06:19.256Z,18.30
2022-09-06T05:08:46.320Z,18.20
2022-09-06T05:11:13.207Z,18.30
2022-09-06T05:13:40.986Z,18.20
2022-09-06T05:16:08.897Z,18.20
2022-09-06T05:18:35.854Z,18.20
2022-09-06T05:21:02.636Z,18.20
2022-09-06T05:23:29.584Z,18.20
2022-09-06T05:25:56.339Z,18.20
2022-09-06T05:28:23.784Z,18.10
2022-09-06T05:30:50.538Z,18.10
2022-09-06T05:33:22.166Z,18.10
2022-09-06T05:35:49.573Z,18.00
2022-09-06T05:38:16.455Z,18.00
2022-09-06T05:40:43.463Z,18.00
2022-09-06T05:43:10.133Z,18.00
2022-09-06T05:45:37.311Z,18.00
2022-09-06T05:48:04.549Z,18.00
2022-09-06T05:50:31.305Z,18.00
2022-09-06T05:52:58.743Z,18.00
2022-09-06T05:55:25.871Z,18.00
2022-09-06T05:57:52.529Z,18.00
2022-09-06T06:00:19.327Z,18.00
2022-09-06T06:02:50.060Z,18.00
2022-09-06T06:05:17.047Z,18.00
2022-09-06T06:07:43.944Z,18.00
2022-09-06T06:10:10.920Z,18.00
2022-09-06T06:12:37.816Z,18.00
2022-09-06T06:15:05.633Z,18.00
2022-09-06T06:17:32.392Z,18.10
2022-09-06T06:19:59.150Z,18.10
2022-09-06T06:22:25.859Z,18.10
2022-09-06T06:24:52.577Z,18.10
2022-09-06T06:27:19.367Z,18.20
2022-09-06T06:29:46.254Z,18.20
2022-09-06T06:32:13.269Z,18.30
2022-09-06T06:34:40.160Z,18.30
2022-09-06T06:37:06.997Z,18.30
2022-09-06T06:39:33.757Z,18.40
2022-09-06T06:42:00.561Z,18.40
2022-09-06T06:44:42.345Z,18.50
2022-09-06T06:47:09.016Z,18.50
2022-09-06T06:49:35.795Z,18.60
2022-09-06T06:52:02.632Z,18.60
2022-09-06T06:54:29.807Z,18.70
2022-09-06T06:56:56.761Z,18.70
2022-09-06T06:59:23.430Z,18.80
2022-09-06T07:01:50.573Z,18.80
2022-09-06T07:04:17.615Z,18.90
2022-09-06T07:12:27.052Z,19.00
2022-09-06T07:14:53.939Z,19.00
2022-09-06T07:17:20.643Z,19.10
2022-09-06T07:22:34.000Z,19.20
2022-09-06T07:25:00.882Z,19.20
2022-09-06T07:30:21.805Z,19.30
2022-09-06T07:32:54.217Z,19.40
2022-09-06T07:35:39.450Z,19.40
2022-09-06T07:38:10.158Z,19.50
2022-09-06T07:40:36.873Z,19.60
2022-09-06T07:43:03.553Z,19.70
2022-09-06T07:45:30.254Z,19.70
2022-09-06T07:48:00.941Z,19.70
2022-09-06T07:50:47.397Z,19.70
2022-09-06T07:53:30.508Z,19.80
2022-09-06T07:55:59.150Z,19.80
2022-09-06T07:58:26.124Z,19.90
2022-09-06T08:00:55.333Z,19.90
2022-09-06T08:03:24.268Z,20.10
2022-09-06T08:11:26.940Z,20.30
2022-09-06T08:13:55.590Z,20.30
2022-09-06T08:16:25.982Z,20.40
2022-09-06T08:18:54.645Z,20.40
2022-09-06T08:21:25.353Z,20.50
2022-09-06T08:23:55.912Z,20.50
2022-09-06T08:26:33.348Z,20.70
2022-09-06T08:29:13.691Z,20.80
2022-09-06T08:31:42.969Z,20.80
2022-09-06T08:34:12.459Z,20.90
2022-09-06T08:36:39.140Z,20.90
2022-09-06T08:39:08.941Z,21.00
2022-09-06T08:42:02.903Z,21.20
2022-09-06T08:47:22.776Z,21.40
2022-09-06T08:49:56.910Z,21.50
2022-09-06T08:53:16.080Z,21.60
2022-09-06T08:55:55.279Z,21.70
2022-09-06T08:58:45.857Z,21.80
2022-09-06T09:01:25.411Z,21.90
2022-09-06T09:03:56.567Z,22.10
2022-09-06T09:06:25.409Z,22.20
2022-09-06T09:09:10.768Z,22.20
2022-09-06T09:11:42.459Z,22.40
2022-09-06T09:14:22.307Z,22.60
2022-09-06T09:16:54.882Z,22.60
2022-09-06T09:19:21.547Z,22.80
2022-09-06T09:21:48.307Z,22.90
2022-09-06T09:24:15.882Z,23.10
2022-09-06T09:26:54.084Z,23.30
2022-09-06T09:29:26.783Z,23.50
2022-09-06T09:31:55.961Z,24.10
2022-09-06T09:34:35.384Z,24.60
2022-09-06T09:40:29.489Z,25.70
2022-09-06T09:43:09.028Z,26.20
2022-09-06T09:45:35.670Z,26.70
2022-09-06T09:48:35.296Z,27.00
2022-09-06T09:51:27.378Z,27.30
2022-09-06T09:54:04.279Z,27.60
2022-09-06T09:56:44.471Z,27.90
2022-09-06T09:59:44.254Z,27.80
2022-09-06T10:02:24.090Z,28.10
2022-09-06T10:04:53.808Z,28.30
2022-09-06T10:07:24.661Z,28.50
2022-09-06T10:10:00.845Z,28.90
2022-09-06T10:12:31.010Z,28.80
2022-09-06T10:15:00.225Z,28.90
2022-09-06T10:17:50.659Z,29.00
2022-09-06T10:20:18.220Z,29.00
2022-09-06T10:23:17.796Z,29.20
2022-09-06T10:26:00.910Z,29.40
2022-09-06T10:28:34.240Z,29.70
2022-09-06T10:31:33.474Z,29.80
2022-09-06T10:34:28.387Z,29.70
2022-09-06T10:37:16.571Z,29.40
2022-09-06T10:40:08.523Z,29.40
2022-09-06T10:42:48.546Z,29.70
2022-09-06T10:45:37.943Z,29.90
2022-09-06T10:48:27.477Z,29.80
2022-09-06T10:51:20.638Z,29.90
2022-09-06T10:54:13.286Z,29.90
2022-09-06T10:56:47.556Z,30.00
2022-09-06T10:59:41.399Z,30.10
2022-09-06T11:02:32.736Z,30.10
2022-09-06T11:10:52.582Z,30.50
2022-09-06T11:13:21.169Z,30.70
2022-09-06T11:15:56.327Z,30.80
2022-09-06T11:18:51.771Z,30.70
2022-09-06T11:21:43.324Z,30.30
2022-09-06T11:24:29.011Z,30.10
2022-09-06T11:27:13.075Z,30.10
2022-09-06T11:29:46.263Z,30.10
2022-09-06T11:32:32.970Z,30.10
2022-09-06T11:35:03.267Z,30.00
2022-09-06T11:37:40.774Z,30.10
2022-09-06T11:40:29.790Z,30.10
2022-09-06T11:43:01.561Z,30.00
2022-09-06T11:45:40.524Z,30.00
2022-09-06T11:48:26.471Z,29.80
2022-09-06T11:50:59.011Z,29.90
2022-09-06T11:53:30.963Z,29.80
2022-09-06T11:56:00.433Z,29.90
2022-09-06T11:58:53.179Z,29.70
2022-09-06T12:01:20.716Z,29.50
2022-09-06T12:04:09.687Z,29.50
2022-09-06T12:06:39.627Z,29.40
2022-09-06T12:09:28.136Z,29.40
2022-09-06T12:11:56.539Z,29.40
2022-09-06T12:14:29.356Z,29.30
2022-09-06T12:16:56.256Z,29.20
2022-09-06T12:19:54.037Z,29.10
2022-09-06T12:22:27.003Z,29.00
2022-09-06T12:25:02.010Z,28.80
2022-09-06T12:27:39.112Z,28.60
2022-09-06T12:30:12.125Z,28.50
2022-09-06T12:32:49.022Z,28.40
2022-09-06T12:38:16.046Z,28.40
2022-09-06T12:40:48.804Z,28.40
2022-09-06T12:43:17.080Z,28.40
2022-09-06T12:45:45.748Z,28.50
2022-09-06T12:48:25.144Z,28.50
2022-09-06T12:51:13.475Z,28.50
2022-09-06T12:53:40.577Z,28.40
2022-09-06T12:56:15.799Z,28.40
2022-09-06T12:58:42.452Z,28.30
2022-09-06T13:01:15.791Z,28.30
2022-09-06T13:04:02.833Z,28.40
2022-09-06T13:06:33.872Z,28.30
2022-09-06T13:09:01.483Z,28.40
2022-09-06T13:11:37.276Z,28.50
2022-09-06T13:14:16.172Z,28.50
2022-09-06T13:16:46.208Z,28.70
2022-09-06T13:19:15.610Z,28.60
2022-09-06T13:21:46.627Z,28.70
2022-09-06T13:24:48.997Z,28.80
2022-09-06T13:27:45.914Z,28.60
2022-09-06T13:30:30.798Z,28.40
2022-09-06T13:32:57.588Z,28.20
2022-09-06T13:35:30.058Z,28.30
2022-09-06T13:38:33.798Z,28.30
2022-09-06T13:41:16.941Z,28.50
2022-09-06T13:43:45.935Z,28.40
2022-09-06T13:46:12.926Z,28.60
2022-09-06T13:48:40.003Z,28.50
2022-09-06T13:51:07.983Z,28.50
2022-09-06T13:53:35.255Z,28.40
2022-09-06T13:56:03.635Z,28.30
2022-09-06T13:58:30.442Z,28.40
2022-09-06T14:00:58.562Z,28.30
2022-09-06T14:03:28.833Z,28.30
2022-09-06T14:05:55.815Z,28.40
2022-09-06T14:08:22.793Z,28.50
2022-09-06T14:10:51.015Z,28.50
2022-09-06T14:13:18.980Z,28.40
2022-09-06T14:15:46.951Z,28.40
2022-09-06T14:18:14.552Z,28.30
2022-09-06T14:20:44.810Z,28.30
2022-09-06T14:23:11.479Z,28.30
2022-09-06T14:25:38.270Z,28.30
2022-09-06T14:28:05.023Z,28.30
2022-09-06T14:30:32.160Z,28.30
2022-09-06T14:33:00.672Z,28.20
2022-09-06T14:35:27.920Z,28.20
2022-09-06T14:37:59.433Z,28.20
2022-09-06T14:40:28.677Z,28.00
2022-09-06T14:42:57.190Z,28.00
2022-09-06T14:45:23.916Z,28.00
2022-09-06T14:47:50.616Z,28.00
2022-09-06T14:50:17.531Z,28.10
2022-09-06T14:52:44.464Z,28.10
2022-09-06T14:55:13.799Z,28.20
2022-09-06T14:57:40.588Z,28.20
2022-09-06T15:00:11.127Z,28.20
2022-09-06T15:02:37.955Z,28.20
2022-09-06T15:05:23.865Z,28.20
2022-09-06T15:07:50.676Z,28.20
2022-09-06T15:10:20.787Z,28.10
2022-09-06T15:12:47.433Z,28.10
2022-09-06T15:15:14.201Z,28.10
2022-09-06T15:17:41.560Z,28.00
2022-09-06T15:20:08.928Z,28.00
2022-09-06T15:22:36.498Z,28.00
2022-09-06T15:25:03.265Z,27.80
2022-09-06T15:27:31.278Z,27.80
2022-09-06T15:29:58.150Z,27.80
2022-09-06T15:32:25.145Z,27.80
2022-09-06T15:34:52.240Z,27.80
2022-09-06T15:37:18.951Z,27.80
2022-09-06T15:39:45.688Z,27.70
2022-09-06T15:42:12.389Z,27.70
2022-09-06T15:44:39.051Z,27.70
2022-09-06T15:47:06.023Z,27.70
2022-09-06T15:49:32.750Z,27.80
2022-09-06T15:52:03.723Z,27.60
2022-09-06T15:54:49.244Z,27.60
2022-09-06T15:57:16.836Z,27.60
2022-09-06T15:59:43.557Z,27.50
2022-09-06T16:02:10.794Z,27.50
2022-09-06T16:04:40.255Z,27.40
2022-09-06T16:07:07.130Z,27.40
2022-09-06T16:09:34.262Z,27.30
2022-09-06T16:12:01.125Z,27.30
2022-09-06T16:14:28.875Z,27.30
2022-09-06T16:16:56.291Z,27.30
2022-09-06T16:19:24.204Z,27.30
2022-09-06T16:21:50.875Z,27.10
2022-09-06T16:24:18.508Z,27.00
2022-09-06T16:26:46.507Z,27.00
2022-09-06T16:29:16.314Z,26.90
2022-09-06T16:31:42.982Z,26.90
2022-09-06T16:34:10.886Z,26.80
2022-09-06T16:36:38.254Z,26.80
2022-09-06T16:39:06.376Z,26.80
2022-09-06T16:41:46.883Z,26.60
2022-09-06T16:44:17.437Z,26.60
2022-09-06T16:46:48.508Z,26.50
2022-09-06T16:49:19.765Z,26.50
2022-09-06T16:51:47.955Z,26.50
2022-09-06T16:54:15.478Z,26.50
2022-09-06T16:56:42.889Z,26.50
2022-09-06T16:59:10.752Z,26.40
2022-09-06T17:01:41.245Z,26.40
2022-09-06T17:04:13.144Z,26.40
2022-09-06T17:06:44.402Z,26.30
2022-09-06T17:09:13.403Z,26.20
2022-09-06T17:11:40.278Z,26.20
2022-09-06T17:14:07.343Z,26.10
2022-09-06T17:16:53.038Z,26.10
2022-09-06T17:19:22.559Z,26.00
2022-09-06T17:21:49.272Z,26.00
2022-09-06T17:24:16.494Z,25.90
2022-09-06T17:26:43.182Z,25.90
2022-09-06T17:29:10.636Z,25.80
2022-09-06T17:31:38.009Z,25.80
2022-09-06T17:34:05.288Z,25.80
2022-09-06T17:36:33.643Z,25.80
2022-09-06T17:39:09.386Z,25.70
2022-09-06T17:41:39.424Z,25.70
2022-09-06T17:44:10.580Z,25.60
2022-09-06T17:46:44.085Z,25.60
2022-09-06T17:49:19.354Z,25.60
2022-09-06T17:51:46.736Z,25.50
2022-09-06T17:54:17.420Z,25.40
2022-09-06T17:56:44.444Z,25.40
2022-09-06T17:59:14.024Z,25.30
2022-09-06T18:01:42.930Z,25.30
2022-09-06T18:04:11.116Z,25.30
2022-09-06T18:06:40.747Z,25.20
2022-09-06T18:09:11.074Z,25.10
2022-09-06T18:11:39.715Z,25.10
2022-09-06T18:14:09.092Z,25.00
2022-09-06T18:16:37.768Z,25.00
2022-09-06T18:19:06.144Z,25.00
2022-09-06T18:21:36.651Z,24.90
2022-09-06T18:24:04.850Z,24.70
2022-09-06T18:26:32.124Z,24.60
2022-09-06T18:29:00.720Z,24.50
2022-09-06T18:31:29.899Z,24.40
2022-09-06T18:33:58.777Z,24.30
2022-09-06T18:36:31.199Z,24.30
2022-09-06T18:39:04.605Z,24.30
2022-09-06T18:41:51.405Z,24.20
2022-09-06T18:44:19.053Z,24.10
2022-09-06T18:46:46.225Z,24.10
2022-09-06T18:49:15.213Z,24.00
2022-09-06T18:51:42.969Z,23.90
2022-09-06T18:54:10.793Z,23.90
2022-09-06T18:56:37.570Z,23.80
2022-09-06T18:59:05.535Z,23.80
2022-09-06T19:01:34.769Z,23.80
2022-09-06T19:04:02.035Z,23.80
2022-09-06T19:06:29.907Z,23.80
2022-09-06T19:09:01.598Z,23.80
2022-09-06T19:11:28.979Z,23.80
2022-09-06T19:13:56.926Z,23.70
2022-09-06T19:16:25.269Z,23.60
2022-09-06T19:18:55.116Z,23.60
2022-09-06T19:21:24.900Z,23.50
2022-09-06T19:24:12.087Z,23.50
2022-09-06T19:26:41.695Z,23.40
2022-09-06T19:29:12.948Z,23.40
2022-09-06T19:31:39.960Z,23.30
2022-09-06T19:34:07.555Z,23.20
2022-09-06T19:36:34.322Z,23.20
2022-09-06T19:39:07.592Z,23.10
2022-09-06T19:41:38.168Z,23.10
2022-09-06T19:44:07.620Z,23.00
2022-09-06T19:46:35.247Z,23.00
2022-09-06T19:49:02.281Z,23.00
2022-09-06T19:51:29.050Z,22.90
2022-09-06T19:54:00.527Z,22.90
2022-09-06T19:56:33.342Z,22.80
2022-09-06T19:59:03.122Z,22.80
2022-09-06T20:01:32.786Z,22.70
2022-09-06T20:04:02.937Z,22.60
2022-09-06T20:06:30.379Z,22.50
2022-09-06T20:08:58.608Z,22.50
2022-09-06T20:11:28.786Z,22.50
2022-09-06T20:13:55.960Z,22.40
2022-09-06T20:16:24.805Z,22.40
2022-09-06T20:18:52.403Z,22.40
2022-09-06T20:21:19.257Z,22.30
2022-09-06T20:23:50.682Z,22.40
2022-09-06T20:26:18.358Z,22.30
2022-09-06T20:28:45.350Z,22.40
2022-09-06T20:31:16.300Z,22.40
2022-09-06T20:33:49.188Z,22.40
2022-09-06T20:36:18.233Z,22.40
2022-09-06T20:38:46.404Z,22.40
2022-09-06T20:41:14.247Z,22.50
2022-09-06T20:43:42.476Z,22.50
2022-09-06T20:46:20.213Z,22.40
2022-09-06T20:48:47.551Z,22.40
2022-09-06T20:51:21.371Z,22.40
2022-09-06T20:53:59.598Z,22.40
2022-09-06T20:56:28.776Z,22.40
2022-09-06T20:58:59.585Z,22.40
2022-09-06T21:01:32.099Z,22.40
2022-09-06T21:04:00.685Z,22.40
2022-09-06T21:06:30.083Z,22.40
2022-09-06T21:08:57.848Z,22.40
2022-09-06T21:11:24.762Z,22.30
2022-09-06T21:13:53.941Z,22.40
2022-09-06T21:16:24.646Z,22.30
2022-09-06T21:18:53.074Z,22.20
2022-09-06T21:21:20.290Z,22.20
2022-09-06T21:23:47.267Z,22.10
2022-09-06T21:26:17.258Z,22.10
2022-09-06T21:28:45.832Z,22.10
2022-09-06T21:31:28.082Z,22.10
2022-09-06T21:33:57.548Z,22.10
2022-09-06T21:36:29.847Z,22.10
2022-09-06T21:38:59.368Z,22.10
2022-09-06T21:41:27.306Z,22.10
2022-09-06T21:43:59.421Z,22.00
2022-09-06T21:46:34.808Z,22.10
2022-09-06T21:49:04.312Z,22.00
2022-09-06T21:51:32.292Z,22.00
2022-09-06T21:53:59.737Z,22.00
2022-09-06T21:56:26.792Z,22.00
2022-09-06T21:58:57.707Z,21.90
2022-09-06T22:01:29.389Z,22.00
2022-09-06T22:03:56.178Z,22.00
2022-09-06T22:06:28.681Z,22.00
2022-09-06T22:08:57.613Z,22.00
2022-09-06T22:11:28.437Z,22.00
2022-09-06T22:13:59.270Z,22.00
2022-09-06T22:16:27.356Z,22.00
2022-09-06T22:18:54.425Z,22.00
2022-09-06T22:21:21.718Z,22.00
2022-09-06T22:23:56.693Z,21.90
2022-09-06T22:26:24.864Z,21.80
2022-09-06T22:28:57.091Z,21.80
2022-09-06T22:31:25.097Z,21.70
2022-09-06T22:33:52.304Z,21.50
2022-09-06T22:36:19.876Z,21.20
2022-09-06T22:38:46.885Z,21.00
2022-09-06T22:41:13.737Z,20.50
2022-09-06T22:43:40.583Z,20.00
2022-09-06T22:46:11.138Z,19.80
2022-09-06T22:48:37.897Z,19.70
2022-09-06T22:51:06.355Z,19.60
2022-09-06T22:53:33.496Z,19.60
2022-09-06T22:56:01.518Z,19.40
2022-09-06T22:58:28.434Z,19.20
2022-09-06T23:00:56.078Z,19.00
2022-09-06T23:03:23.163Z,18.90
2022-09-06T23:05:50.021Z,18.70
2022-09-06T23:08:16.735Z,18.60
2022-09-06T23:10:44.329Z,18.40
2022-09-06T23:13:11.283Z,18.20
2022-09-06T23:15:40.576Z,18.20
2022-09-06T23:18:08.291Z,18.10
2022-09-06T23:20:36.397Z,18.10
2022-09-06T23:23:04.127Z,18.10
2022-09-06T23:25:31.238Z,18.10
2022-09-06T23:28:00.875Z,18.10
2022-09-06T23:30:27.766Z,18.00
2022-09-06T23:32:56.501Z,18.00
2022-09-06T23:35:23.840Z,18.00
2022-09-06T23:37:51.422Z,18.10
2022-09-06T23:40:18.743Z,18.10
2022-09-06T23:42:45.875Z,18.10
2022-09-06T23:45:13.021Z,18.10
2022-09-06T23:47:40.190Z,18.10
2022-09-06T23:50:07.314Z,18.10
2022-09-06T23:52:34.012Z,18.00
2022-09-06T23:55:00.705Z,18.10
2022-09-06T23:57:27.636Z,18.00
2022-09-06T23:59:54.602Z,17.90
